Edgewater Park, New Jersey
Current Conditions -  °F | °C
As of 1:54 AM on Sunday 26 Oct 2014 (Local Time) from KPNE Reporting Station
Overcast Overcast  
Wind Chill: 61°   Ceiling: 8000
Heat Index: 61°   Visibility: 10mi
Dew Point: 44°   Wind: 7mph
Humidity: 54%   Direction: 230°SW
Pressure: 29.61"   Gusts: NA
Location:  40.0506°N, 74.9181°W
Report Text: KPNE 260554Z 23006KT 10SM OVC080 16/07 A2961 RMK AO2 SLP025 T01610067 10183 20144 56016
Loading
Personal Weather Stations






























Interactive Weather Map
Tropical Storm Tracking
New forecast layout! Learn more

10-Day Weather Forecast

Advertisements
Track Severe Weather on mobile